Time;durP1;ratioP1;P1;durP2;ratioP2;P2;SDS_P1;SDS_P2;PMS_P1;PMS_P2;Temp;Humidity;BMP_temperature;BMP_pressure;BME280_temperature;BME280_humidity;BME280_pressure;Samples;Min_cycle;Max_cycle;Signal;HPM_P1;HPM_P2
2021/11/27 00:00:19;;;;;;;;;;;;;;;6.30;79.89;98750.95;1715376;84;20191;-65
2021/11/27 00:02:46;;;;;;;;;;;;;;;6.28;80.47;98736.73;1715135;83;20227;-66
2021/11/27 00:05:15;;;;;;;;;;;;;;;6.23;80.73;98736.52;1715104;83;20191;-66
2021/11/27 00:07:44;;;;;;;;;;;;;;;6.20;81.29;98735.59;1715383;84;20230;-67
2021/11/27 00:10:14;;;;;;;;;;;;;;;6.16;81.74;98728.37;1715170;83;20505;-66
2021/11/27 00:12:43;;;;;;;;;;;;;;;6.10;82.12;98726.50;1715238;84;20191;-67
2021/11/27 00:15:12;;;;;;;;;;;;;;;6.06;82.48;98727.13;1715164;84;20179;-66
2021/11/27 00:17:41;;;;;;;;;;;;;;;6.04;82.82;98719.18;1715192;84;20195;-66
2021/11/27 00:20:18;;;;;;;;;;;;;;;6.00;83.14;98720.13;1715359;84;20483;-67
2021/11/27 00:22:46;;;;;;;;;;;;;;;5.97;83.36;98715.63;1715171;84;20218;-65
2021/11/27 00:25:15;;;;;;;;;;;;;;;5.94;83.61;98697.86;1714979;82;20278;-68
2021/11/27 00:27:45;;;;;;;;;;;;;;;5.93;83.87;98704.34;1715038;84;20271;-66
2021/11/27 00:30:17;;;;;;;;;;;;;;;5.92;84.08;98706.74;1715054;83;20251;-67
2021/11/27 00:32:45;;;;;;;;;;;;;;;5.92;84.46;98691.80;1715086;84;20513;-70
2021/11/27 00:35:14;;;;;;;;;;;;;;;5.93;84.66;98691.27;1715056;84;20203;-68
2021/11/27 00:37:42;;;;;;;;;;;;;;;5.92;84.88;98679.56;1715409;84;20548;-68
2021/11/27 00:40:13;;;;;;;;;;;;;;;5.93;85.09;98676.33;1715163;84;20263;-69
2021/11/27 00:42:44;;;;;;;;;;;;;;;5.94;85.35;98670.68;1715051;83;20191;-68
2021/11/27 00:45:12;;;;;;;;;;;;;;;5.94;85.43;98656.25;1715042;83;20521;-68
2021/11/27 00:47:44;;;;;;;;;;;;;;;5.94;85.62;98651.65;1715330;83;20504;-68
2021/11/27 00:50:12;;;;;;;;;;;;;;;5.92;85.70;98649.67;1715168;83;20204;-69
2021/11/27 00:52:41;;;;;;;;;;;;;;;5.93;85.90;98636.39;1715367;84;20561;-69
2021/11/27 00:55:10;;;;;;;;;;;;;;;5.92;85.98;98632.00;1715211;84;20208;-70
2021/11/27 00:57:39;;;;;;;;;;;;;;;5.91;86.15;98619.98;1714874;82;20191;-68
2021/11/27 01:00:10;;;;;;;;;;;;;;;5.92;86.33;98620.30;1715161;84;20505;-70
2021/11/27 01:02:39;;;;;;;;;;;;;;;5.91;86.35;98611.83;1715051;84;20195;-69
2021/11/27 01:05:25;;;;;;;;;;;;;;;5.90;86.50;98602.84;1715146;83;20184;-70
2021/11/27 01:07:55;;;;;;;;;;;;;;;5.90;86.62;98583.81;1715315;84;20562;-70
2021/11/27 01:10:26;;;;;;;;;;;;;;;5.91;86.70;98583.30;1715382;83;20294;-68
2021/11/27 01:12:57;;;;;;;;;;;;;;;5.87;86.74;98570.62;1715408;82;20481;-70
2021/11/27 01:15:28;;;;;;;;;;;;;;;5.85;86.87;98572.71;1714957;84;20195;-69
2021/11/27 01:17:57;;;;;;;;;;;;;;;5.84;86.99;98556.59;1715124;84;20187;-71
2021/11/27 01:20:32;;;;;;;;;;;;;;;5.79;86.95;98567.26;1715105;84;20219;-71
2021/11/27 01:23:00;;;;;;;;;;;;;;;5.76;87.15;98567.16;1715446;84;20235;-70
2021/11/27 01:25:30;;;;;;;;;;;;;;;5.77;87.19;98563.92;1715102;84;20214;-72
2021/11/27 01:27:58;;;;;;;;;;;;;;;5.75;87.19;98550.55;1715124;84;20191;-70
2021/11/27 01:30:26;;;;;;;;;;;;;;;5.74;87.29;98542.92;1715164;84;20649;-70
2021/11/27 01:32:56;;;;;;;;;;;;;;;5.70;87.29;98538.95;1715170;84;20191;-71
2021/11/27 01:35:24;;;;;;;;;;;;;;;5.67;87.30;98532.59;1715048;82;20294;-71
2021/11/27 01:37:53;;;;;;;;;;;;;;;5.66;87.35;98541.78;1715145;84;20313;-73
2021/11/27 01:40:23;;;;;;;;;;;;;;;5.63;87.47;98527.79;1715100;84;20235;-73
2021/11/27 01:42:52;;;;;;;;;;;;;;;5.61;87.61;98514.95;1715323;82;20521;-73
2021/11/27 01:45:21;;;;;;;;;;;;;;;5.59;87.79;98526.02;1715089;84;20211;-74
2021/11/27 01:47:57;;;;;;;;;;;;;;;5.56;87.90;98512.03;1715130;84;20187;-73
2021/11/27 01:50:29;;;;;;;;;;;;;;;5.54;88.00;98504.62;1714743;84;20350;-73
2021/11/27 01:52:57;;;;;;;;;;;;;;;5.50;88.16;98511.00;1714648;84;20242;-74
2021/11/27 01:55:26;;;;;;;;;;;;;;;5.51;88.41;98503.68;1714633;84;20210;-74
2021/11/27 01:57:55;;;;;;;;;;;;;;;5.52;88.57;98498.56;1714736;84;20235;-74
2021/11/27 02:00:27;;;;;;;;;;;;;;;5.53;88.69;98482.58;1715054;82;20198;-73
2021/11/27 02:02:56;;;;;;;;;;;;;;;5.51;88.87;98490.94;1714626;84;20202;-72
2021/11/27 02:05:26;;;;;;;;;;;;;;;5.52;89.04;98479.55;1713504;83;20258;-72
2021/11/27 02:07:54;;;;;;;;;;;;;;;5.49;89.13;98466.39;1714978;84;20215;-71
2021/11/27 02:10:25;;;;;;;;;;;;;;;5.48;89.25;98465.56;1714693;84;20295;-74
2021/11/27 02:12:53;;;;;;;;;;;;;;;5.52;89.41;98470.05;1714651;84;20320;-74
2021/11/27 02:15:22;;;;;;;;;;;;;;;5.54;89.53;98459.80;1714651;84;20512;-73
2021/11/27 02:17:51;;;;;;;;;;;;;;;5.57;89.70;98463.45;1714864;84;20556;-74
2021/11/27 02:20:20;;;;;;;;;;;;;;;5.59;89.76;98450.48;1714610;84;20492;-73
2021/11/27 02:22:51;;;;;;;;;;;;;;;5.61;89.85;98456.54;1714689;84;20207;-74
2021/11/27 02:25:22;;;;;;;;;;;;;;;5.65;90.03;98459.14;1714545;82;20226;-72
2021/11/27 02:27:51;;;;;;;;;;;;;;;5.64;90.07;98451.52;1714719;84;20558;-74
2021/11/27 02:30:21;;;;;;;;;;;;;;;5.65;90.19;98438.24;1714674;84;20211;-72
2021/11/27 02:32:50;;;;;;;;;;;;;;;5.69;90.38;98438.64;1714635;84;20176;-73
2021/11/27 02:35:18;;;;;;;;;;;;;;;5.68;90.51;98436.45;1714594;84;20590;-71
2021/11/27 02:37:47;;;;;;;;;;;;;;;5.70;90.67;98428.92;1714636;84;20211;-72
2021/11/27 02:40:15;;;;;;;;;;;;;;;5.70;90.72;98420.77;1714838;84;20584;-72
2021/11/27 02:42:44;;;;;;;;;;;;;;;5.71;90.86;98420.25;1714936;84;20551;-72
2021/11/27 02:45:12;;;;;;;;;;;;;;;5.69;90.93;98410.13;1714562;84;20254;-72
2021/11/27 02:47:42;;;;;;;;;;;;;;;5.68;91.06;98407.93;1714798;84;20542;-74
2021/11/27 02:50:12;;;;;;;;;;;;;;;5.70;91.17;98409.07;1714902;83;20279;-73
2021/11/27 02:52:43;;;;;;;;;;;;;;;5.67;91.19;98400.00;1715162;84;20183;-72
2021/11/27 02:55:11;;;;;;;;;;;;;;;5.66;91.30;98394.25;1715112;84;20198;-73
2021/11/27 02:57:40;;;;;;;;;;;;;;;5.66;91.43;98393.73;1715102;82;20558;-72
2021/11/27 03:00:12;;;;;;;;;;;;;;;5.67;91.59;98393.20;1715105;84;20505;-72
2021/11/27 03:02:42;;;;;;;;;;;;;;;5.67;91.68;98379.09;1689240;84;20191;-72
2021/11/27 03:05:11;;;;;;;;;;;;;;;5.68;91.82;98372.61;1715066;84;20235;-70
2021/11/27 03:07:39;;;;;;;;;;;;;;;5.71;91.87;98376.78;1715574;83;20202;-72
2021/11/27 03:10:11;;;;;;;;;;;;;;;5.72;91.96;98373.84;1715024;83;20587;-71
2021/11/27 03:12:40;;;;;;;;;;;;;;;5.76;92.04;98379.68;1715090;84;20218;-71
2021/11/27 03:15:13;;;;;;;;;;;;;;;5.77;92.10;98369.13;1689268;84;20258;-73
2021/11/27 03:17:41;;;;;;;;;;;;;;;5.80;92.24;98361.89;1715133;84;20505;-74
2021/11/27 03:20:11;;;;;;;;;;;;;;;5.80;92.28;98353.74;1715084;83;20226;-73
2021/11/27 03:22:40;;;;;;;;;;;;;;;5.83;92.38;98354.66;1715079;82;20501;-71
2021/11/27 03:25:10;;;;;;;;;;;;;;;5.86;92.46;98352.91;1714960;83;20239;-73
2021/11/27 03:27:40;;;;;;;;;;;;;;;5.91;92.55;98350.92;1714924;84;20282;-72
2021/11/27 03:30:12;;;;;;;;;;;;;;;5.92;92.60;98354.78;1714864;84;20203;-72
2021/11/27 03:32:42;;;;;;;;;;;;;;;5.95;92.63;98358.42;1715010;84;20247;-72
2021/11/27 03:35:12;;;;;;;;;;;;;;;5.96;92.67;98357.38;1714346;84;20275;-71
2021/11/27 03:37:46;;;;;;;;;;;;;;;5.98;92.70;98353.91;1714861;84;20255;-71
2021/11/27 03:40:17;;;;;;;;;;;;;;;5.98;92.77;98349.83;1715058;84;20349;-72
2021/11/27 03:42:47;;;;;;;;;;;;;;;5.99;92.83;98353.38;1714856;84;20219;-72
2021/11/27 03:45:18;;;;;;;;;;;;;;;6.01;92.98;98358.91;1714980;84;20195;-68
2021/11/27 03:48:00;;;;;;;;;;;;;;;6.03;93.10;98343.21;1714982;84;20187;-72
2021/11/27 03:50:31;;;;;;;;;;;;;;;6.07;93.18;98341.41;1714883;83;20247;-72
2021/11/27 03:53:01;;;;;;;;;;;;;;;6.07;93.28;98340.89;1712199;84;20180;-71
2021/11/27 03:55:29;;;;;;;;;;;;;;;6.11;93.44;98332.60;1714781;82;20238;-72
2021/11/27 03:57:58;;;;;;;;;;;;;;;6.13;93.50;98333.74;1715245;83;20199;-73
2021/11/27 04:00:27;;;;;;;;;;;;;;;6.16;93.64;98329.22;1714942;84;20497;-72
2021/11/27 04:02:56;;;;;;;;;;;;;;;6.17;93.73;98333.08;1714952;83;20215;-70
2021/11/27 04:05:25;;;;;;;;;;;;;;;6.21;93.83;98330.75;1715167;83;20503;-69
2021/11/27 04:07:56;;;;;;;;;;;;;;;6.23;93.97;98331.37;1715301;84;20541;-68
2021/11/27 04:10:25;;;;;;;;;;;;;;;6.28;94.07;98322.85;1715009;84;20251;-71
2021/11/27 04:12:55;;;;;;;;;;;;;;;6.33;94.22;98320.30;1714864;84;20234;-68
2021/11/27 04:15:24;;;;;;;;;;;;;;;6.38;94.28;98312.84;1714939;84;20263;-70
2021/11/27 04:17:53;;;;;;;;;;;;;;;6.43;94.40;98321.16;1714876;84;20195;-67
2021/11/27 04:20:23;;;;;;;;;;;;;;;6.47;94.49;98312.03;1715068;83;20234;-68
2021/11/27 04:22:53;;;;;;;;;;;;;;;6.52;94.59;98306.26;1715221;84;20512;-69
2021/11/27 04:25:24;;;;;;;;;;;;;;;6.56;94.63;98297.95;1715350;82;20231;-65
2021/11/27 04:27:55;;;;;;;;;;;;;;;6.61;94.75;98306.80;1715030;84;20485;-68
2021/11/27 04:30:26;;;;;;;;;;;;;;;6.64;94.80;98311.80;1715115;84;20619;-65
2021/11/27 04:32:54;;;;;;;;;;;;;;;6.64;94.90;98311.27;1715018;84;20243;-66
2021/11/27 04:35:27;;;;;;;;;;;;;;;6.66;94.98;98307.80;1714290;82;20752;-66
2021/11/27 04:37:57;;;;;;;;;;;;;;;6.70;95.06;98313.62;1715225;83;20183;-66
2021/11/27 04:40:28;;;;;;;;;;;;;;;6.75;95.11;98315.14;1715261;84;20215;-67
2021/11/27 04:42:58;;;;;;;;;;;;;;;6.77;95.18;98314.39;1715103;84;20283;-66
2021/11/27 04:45:29;;;;;;;;;;;;;;;6.81;95.22;98323.77;1715131;84;20584;-66
2021/11/27 04:47:57;;;;;;;;;;;;;;;6.85;95.27;98321.44;1688364;84;20270;-66
2021/11/27 04:50:27;;;;;;;;;;;;;;;6.88;95.33;98325.06;1714930;83;20263;-67
2021/11/27 04:52:55;;;;;;;;;;;;;;;6.91;95.36;98332.78;1714742;84;20246;-69
2021/11/27 04:55:24;;;;;;;;;;;;;;;6.95;95.42;98336.72;1714788;84;20570;-67
2021/11/27 04:57:57;;;;;;;;;;;;;;;6.97;95.46;98335.44;1714475;83;20605;-67
2021/11/27 05:00:30;;;;;;;;;;;;;;;7.00;95.47;98335.52;1714772;84;20557;-68
2021/11/27 05:03:01;;;;;;;;;;;;;;;7.05;95.51;98340.28;1714601;84;20203;-66
2021/11/27 05:05:34;;;;;;;;;;;;;;;7.09;95.49;98327.88;1714617;84;20294;-69
2021/11/27 05:08:03;;;;;;;;;;;;;;;7.11;95.44;98328.48;1714679;84;20199;-67
2021/11/27 05:10:34;;;;;;;;;;;;;;;7.17;95.54;98328.98;1696682;84;20216;-67
2021/11/27 05:13:03;;;;;;;;;;;;;;;7.20;95.48;98322.55;1714744;84;20557;-68
2021/11/27 05:15:32;;;;;;;;;;;;;;;7.22;95.48;98319.06;1714545;84;20226;-67
2021/11/27 05:18:02;;;;;;;;;;;;;;;7.24;95.48;98313.39;1714624;84;20182;-67
2021/11/27 05:20:35;;;;;;;;;;;;;;;7.27;95.50;98316.49;1713225;83;20191;-66
2021/11/27 05:23:06;;;;;;;;;;;;;;;7.29;95.50;98315.73;1714793;84;20212;-66
2021/11/27 05:25:36;;;;;;;;;;;;;;;7.31;95.51;98314.14;1714624;82;20278;-66
2021/11/27 05:28:23;;;;;;;;;;;;;;;7.34;95.51;98320.50;1714607;84;20500;-67
2021/11/27 05:30:54;;;;;;;;;;;;;;;7.37;95.51;98322.77;1713698;83;20219;-67
2021/11/27 05:36:09;;;;;;;;;;;;;;;7.43;95.53;98326.47;1714819;84;20539;-68
2021/11/27 05:38:37;;;;;;;;;;;;;;;7.44;95.46;98328.97;1714858;82;20199;-66
2021/11/27 05:41:09;;;;;;;;;;;;;;;7.48;95.52;98334.79;1714572;84;20226;-67
2021/11/27 05:43:38;;;;;;;;;;;;;;;7.51;95.52;98347.95;1714786;82;20299;-66
2021/11/27 05:46:08;;;;;;;;;;;;;;;7.53;95.52;98349.39;1714600;84;20673;-69
2021/11/27 05:48:37;;;;;;;;;;;;;;;7.56;95.46;98349.47;1714756;84;20234;-68
2021/11/27 05:51:23;;;;;;;;;;;;;;;7.56;95.47;98338.56;1711860;83;20196;-70
2021/11/27 05:53:52;;;;;;;;;;;;;;;7.58;95.47;98340.53;1709799;84;20290;-66
2021/11/27 05:56:20;;;;;;;;;;;;;;;7.61;95.46;98341.44;1710047;84;20211;-67
2021/11/27 05:58:50;;;;;;;;;;;;;;;7.61;95.43;98340.08;1709782;84;20196;-66
2021/11/27 06:01:18;;;;;;;;;;;;;;;7.62;95.42;98347.19;1709683;84;20259;-67
2021/11/27 06:03:46;;;;;;;;;;;;;;;7.64;95.49;98350.52;1709744;84;20246;-67
2021/11/27 06:06:14;;;;;;;;;;;;;;;7.66;95.50;98342.94;1709744;84;20258;-67
2021/11/27 06:08:43;;;;;;;;;;;;;;;7.68;95.48;98346.80;1710047;84;20538;-68
2021/11/27 06:11:13;;;;;;;;;;;;;;;7.70;95.51;98348.23;1709779;84;20195;-67
2021/11/27 06:13:41;;;;;;;;;;;;;;;7.73;95.54;98347.78;1709820;83;20215;-67
2021/11/27 06:16:10;;;;;;;;;;;;;;;7.75;95.55;98355.19;1709784;84;20195;-68
2021/11/27 06:18:39;;;;;;;;;;;;;;;7.78;95.58;98352.54;1709898;84;20255;-68
2021/11/27 06:21:08;;;;;;;;;;;;;;;7.81;95.60;98357.03;1710039;84;20215;-77
2021/11/27 06:23:38;;;;;;;;;;;;;;;7.85;95.65;98356.88;1709542;84;20207;-68
2021/11/27 06:26:06;;;;;;;;;;;;;;;7.90;95.65;98352.92;1709697;84;20207;-68
2021/11/27 06:28:37;;;;;;;;;;;;;;;7.95;95.69;98353.06;1709750;84;20250;-69
2021/11/27 06:31:04;;;;;;;;;;;;;;;7.98;95.63;98363.20;1709942;82;20187;-68
2021/11/27 06:33:34;;;;;;;;;;;;;;;7.99;95.65;98366.23;1709605;84;20211;-69
2021/11/27 06:36:04;;;;;;;;;;;;;;;8.02;95.68;98364.41;1709786;84;20563;-68
2021/11/27 06:38:32;;;;;;;;;;;;;;;8.05;95.68;98366.67;1709704;84;20290;-68
2021/11/27 06:41:01;;;;;;;;;;;;;;;8.07;95.68;98360.45;1709689;84;20290;-68
2021/11/27 06:43:35;;;;;;;;;;;;;;;8.10;95.66;98369.53;1708713;84;20208;-68
2021/11/27 06:46:05;;;;;;;;;;;;;;;8.14;95.63;98369.37;1708544;83;20517;-67
2021/11/27 06:48:35;;;;;;;;;;;;;;;8.17;95.64;98360.73;1709761;84;20505;-68
2021/11/27 06:51:03;;;;;;;;;;;;;;;8.18;95.66;98359.13;1711140;83;20195;-67
2021/11/27 06:53:33;;;;;;;;;;;;;;;8.21;95.68;98368.75;1715008;83;20231;-69
2021/11/27 06:56:02;;;;;;;;;;;;;;;8.24;95.65;98379.19;1714967;84;20602;-69
2021/11/27 06:58:32;;;;;;;;;;;;;;;8.24;95.63;98378.66;1714895;84;20186;-69
2021/11/27 07:01:12;;;;;;;;;;;;;;;8.27;95.61;98371.91;1654340;85;20153;-70
2021/11/27 07:04:00;;;;;;;;;;;;;;;8.30;95.57;98373.34;1715268;83;20501;-67
2021/11/27 07:06:49;;;;;;;;;;;;;;;8.32;95.53;98380.22;1714949;84;20215;-69
2021/11/27 07:09:19;;;;;;;;;;;;;;;8.35;95.51;98380.33;1714118;84;20537;-69
2021/11/27 07:11:50;;;;;;;;;;;;;;;8.37;95.46;98387.21;1713268;84;20210;-68
2021/11/27 07:14:18;;;;;;;;;;;;;;;8.39;95.42;98385.08;1714973;84;20215;-68
2021/11/27 07:16:47;;;;;;;;;;;;;;;8.42;95.37;98382.42;1715017;82;20195;-69
2021/11/27 07:19:15;;;;;;;;;;;;;;;8.44;95.34;98387.11;1715005;83;20199;-68
2021/11/27 07:21:43;;;;;;;;;;;;;;;8.47;95.27;98387.51;1715199;83;20564;-68
2021/11/27 07:24:12;;;;;;;;;;;;;;;8.51;95.22;98392.80;1714980;84;20250;-68
2021/11/27 07:26:40;;;;;;;;;;;;;;;8.53;95.14;98387.94;1715267;84;20587;-68
2021/11/27 07:29:11;;;;;;;;;;;;;;;8.55;95.03;98390.44;1715042;83;20223;-67
2021/11/27 07:31:46;;;;;;;;;;;;;;;8.57;94.99;98392.39;1715196;83;20211;-69
2021/11/27 07:34:15;;;;;;;;;;;;;;;8.58;94.95;98386.70;1715021;84;20192;-68
2021/11/27 07:36:44;;;;;;;;;;;;;;;8.64;94.90;98395.02;1715265;83;20247;-68
2021/11/27 07:39:13;;;;;;;;;;;;;;;8.67;94.79;98389.09;1715067;84;20291;-68
2021/11/27 07:41:43;;;;;;;;;;;;;;;8.71;94.69;98394.38;1715028;84;20616;-67
2021/11/27 07:44:13;;;;;;;;;;;;;;;8.72;94.61;98397.41;1714899;84;20223;-69
2021/11/27 07:46:53;;;;;;;;;;;;;;;8.76;94.57;98394.50;1711488;84;20557;-69
2021/11/27 07:49:27;;;;;;;;;;;;;;;8.78;94.44;98397.30;1699961;84;20214;-69
2021/11/27 07:52:14;;;;;;;;;;;;;;;8.79;94.30;98404.95;1714620;83;20578;-67
2021/11/27 07:54:42;;;;;;;;;;;;;;;8.86;94.17;98415.23;1714643;84;20191;-68
2021/11/27 07:57:10;;;;;;;;;;;;;;;8.89;94.07;98404.67;1714475;84;20555;-69
2021/11/27 07:59:39;;;;;;;;;;;;;;;8.93;93.96;98411.86;1714542;84;20501;-68
2021/11/27 08:02:07;;;;;;;;;;;;;;;8.95;93.75;98408.89;1714695;84;20210;-69
2021/11/27 08:04:36;;;;;;;;;;;;;;;8.94;93.60;98408.06;1714782;84;20512;-68
2021/11/27 08:07:04;;;;;;;;;;;;;;;8.96;93.47;98408.66;1714710;84;20195;-67
2021/11/27 08:09:33;;;;;;;;;;;;;;;9.03;93.38;98411.27;1714504;84;20196;-69
2021/11/27 08:12:01;;;;;;;;;;;;;;;9.09;93.27;98413.89;1714586;83;20594;-67
2021/11/27 08:14:32;;;;;;;;;;;;;;;9.15;93.09;98410.24;1714684;84;20279;-68
2021/11/27 08:17:00;;;;;;;;;;;;;;;9.16;92.67;98405.61;1714624;84;20258;-68
2021/11/27 08:19:29;;;;;;;;;;;;;;;9.16;92.39;98415.17;1714794;84;20492;-67
2021/11/27 08:21:59;;;;;;;;;;;;;;;9.18;92.16;98417.13;1714698;84;20493;-67
2021/11/27 08:24:27;;;;;;;;;;;;;;;9.21;91.95;98400.27;1714749;82;20229;-68
2021/11/27 08:26:56;;;;;;;;;;;;;;;9.23;91.70;98410.42;1714519;84;20203;-70
2021/11/27 08:29:24;;;;;;;;;;;;;;;9.23;91.23;98417.78;1714559;84;20211;-69
2021/11/27 08:31:53;;;;;;;;;;;;;;;9.22;90.99;98414.22;1714569;84;20295;-67
2021/11/27 08:34:22;;;;;;;;;;;;;;;9.27;90.93;98416.24;1715037;84;20228;-68
2021/11/27 08:36:51;;;;;;;;;;;;;;;9.32;90.82;98411.73;1714796;82;20230;-68
2021/11/27 08:39:20;;;;;;;;;;;;;;;9.36;90.53;98422.47;1714791;84;20188;-69
2021/11/27 08:41:48;;;;;;;;;;;;;;;9.38;90.32;98409.94;1714598;84;20505;-69
2021/11/27 08:44:16;;;;;;;;;;;;;;;9.43;90.08;98413.62;1714714;84;20516;-69
2021/11/27 08:46:45;;;;;;;;;;;;;;;9.48;89.93;98415.63;1714626;84;20251;-69
2021/11/27 08:49:14;;;;;;;;;;;;;;;9.53;89.83;98415.21;1714631;84;20271;-69
2021/11/27 08:51:43;;;;;;;;;;;;;;;9.59;89.71;98409.32;1714838;82;20268;-67
2021/11/27 08:54:12;;;;;;;;;;;;;;;9.61;89.20;98411.28;1715285;84;20187;-68
2021/11/27 08:56:42;;;;;;;;;;;;;;;9.63;88.90;98407.77;1715038;84;20270;-68
2021/11/27 08:59:10;;;;;;;;;;;;;;;9.64;88.67;98410.80;1715032;84;20247;-73
2021/11/27 09:01:41;;;;;;;;;;;;;;;9.68;88.34;98407.05;1715157;84;20236;-67
2021/11/27 09:04:09;;;;;;;;;;;;;;;9.73;88.35;98409.35;1715067;82;20210;-66
2021/11/27 09:06:38;;;;;;;;;;;;;;;9.80;88.15;98414.19;1715365;82;20559;-66
2021/11/27 09:09:07;;;;;;;;;;;;;;;9.82;87.68;98413.94;1715249;84;20501;-64
2021/11/27 09:11:36;;;;;;;;;;;;;;;9.84;87.43;98425.47;1715174;84;20258;-66
2021/11/27 09:14:04;;;;;;;;;;;;;;;9.83;86.87;98426.01;1715030;83;20331;-65
2021/11/27 09:16:35;;;;;;;;;;;;;;;9.84;86.71;98425.47;1714921;82;20248;-69
2021/11/27 09:19:04;;;;;;;;;;;;;;;9.87;86.30;98419.52;1726350;81;20556;-66
2021/11/27 09:21:34;;;;;;;;;;;;;;;9.88;85.86;98428.02;1738019;82;20153;-66
2021/11/27 09:24:03;;;;;;;;;;;;;;;9.90;85.75;98422.30;1724193;82;20187;-67
2021/11/27 09:26:31;;;;;;;;;;;;;;;9.89;85.65;98428.84;1719058;82;20266;-66
2021/11/27 09:31:55;;;;;;;;;;;;;;;9.85;84.42;98426.59;1726243;82;20204;-66
2021/11/27 09:37:20;;;;;;;;;;;;;;;9.90;84.05;98437.35;1743323;82;20241;-67
2021/11/27 09:42:46;;;;;;;;;;;;;;;9.85;83.45;98438.08;1735557;82;20271;-67
2021/11/27 09:45:15;;;;;;;;;;;;;;;9.84;83.44;98449.55;1729340;82;20501;-67
2021/11/27 09:47:45;;;;;;;;;;;;;;;9.85;83.33;98439.44;1729996;82;20215;-65
2021/11/27 09:50:15;;;;;;;;;;;;;;;9.90;83.37;98442.82;1728337;82;20184;-65
2021/11/27 09:52:50;;;;;;;;;;;;;;;9.96;83.09;98439.13;1655312;86;20212;-66
2021/11/27 09:55:19;;;;;;;;;;;;;;;9.98;83.02;98440.54;1655704;87;20468;-66
2021/11/27 09:57:50;;;;;;;;;;;;;;;10.01;82.91;98435.12;1655723;85;20175;-64
2021/11/27 10:00:20;;;;;;;;;;;;;;;10.04;82.69;98427.27;1655545;87;20183;-66
2021/11/27 10:02:52;;;;;;;;;;;;;;;10.09;82.74;98423.80;1655030;87;20281;-67
2021/11/27 10:05:21;;;;;;;;;;;;;;;10.17;82.67;98420.67;1654952;85;20522;-65
2021/11/27 10:07:54;;;;;;;;;;;;;;;10.22;82.18;98416.70;1655171;85;20202;-66
2021/11/27 10:10:34;;;;;;;;;;;;;;;10.24;81.60;98414.55;1607494;85;20234;-67
2021/11/27 10:13:02;;;;;;;;;;;;;;;10.25;80.99;98412.64;1685392;85;20564;-64
2021/11/27 10:15:34;;;;;;;;;;;;;;;10.25;80.83;98415.37;1685999;85;20218;-66
2021/11/27 10:21:14;;;;;;;;;;;;;;;10.25;80.35;98429.06;1596497;88;20189;-66
2021/11/27 10:23:45;;;;;;;;;;;;;;;10.24;78.99;98420.56;1590768;90;20615;-65
2021/11/27 10:29:24;;;;;;;;;;;;;;;10.22;78.30;98422.17;1588775;90;20171;-64
2021/11/27 10:32:07;;;;;;;;;;;;;;;10.22;78.54;98421.34;1577293;90;20257;-66
2021/11/27 10:40:25;;;;;;;;;;;;;;;10.27;78.67;98415.42;1645684;87;20241;-68
2021/11/27 10:42:56;;;;;;;;;;;;;;;10.28;78.28;98404.78;1645677;87;20164;-65
2021/11/27 10:45:33;;;;;;;;;;;;;;;10.29;78.02;98411.91;1645934;87;20228;-62
2021/11/27 10:48:22;;;;;;;;;;;;;;;10.29;77.64;98417.38;1645656;87;20547;-66
2021/11/27 10:50:59;;;;;;;;;;;;;;;10.29;76.78;98411.08;1645105;87;20328;-66
2021/11/27 10:53:36;;;;;;;;;;;;;;;10.29;76.37;98416.02;1743792;81;20624;-65
2021/11/27 10:56:05;;;;;;;;;;;;;;;10.30;76.27;98423.16;1743813;81;20251;-65
2021/11/27 10:58:54;;;;;;;;;;;;;;;10.29;76.51;98424.77;1744267;81;20545;-62
2021/11/27 11:01:23;;;;;;;;;;;;;;;10.25;76.19;98425.79;1743847;82;20356;-64
2021/11/27 11:03:52;;;;;;;;;;;;;;;10.24;76.12;98430.14;1744511;81;20582;-64
2021/11/27 11:06:25;;;;;;;;;;;;;;;10.25;76.49;98440.02;1744420;81;20189;-63
2021/11/27 11:08:54;;;;;;;;;;;;;;;10.25;76.65;98443.58;1744621;82;20236;-63
2021/11/27 11:17:18;;;;;;;;;;;;;;;10.29;77.51;98444.75;1744718;82;20296;-65
2021/11/27 11:19:47;;;;;;;;;;;;;;;10.33;77.58;98450.03;1717990;82;20232;-65
2021/11/27 11:22:26;;;;;;;;;;;;;;;10.36;77.78;98453.65;1744538;81;20185;-64
2021/11/27 11:25:14;;;;;;;;;;;;;;;10.39;77.10;98460.01;1744581;82;20732;-64
2021/11/27 11:27:43;;;;;;;;;;;;;;;10.39;76.59;98468.22;1728898;81;20218;-64
2021/11/27 11:30:21;;;;;;;;;;;;;;;10.39;76.25;98468.22;1715173;82;20211;-65
2021/11/27 11:32:52;;;;;;;;;;;;;;;10.38;76.29;98474.77;1727124;82;20549;-64
2021/11/27 11:35:22;;;;;;;;;;;;;;;10.39;76.59;98486.55;1719153;82;20223;-64
2021/11/27 11:37:51;;;;;;;;;;;;;;;10.44;76.80;98486.14;1731102;82;20187;-64
2021/11/27 11:43:24;;;;;;;;;;;;;;;10.49;76.56;98486.78;1728571;82;20159;-65
2021/11/27 11:46:18;;;;;;;;;;;;;;;10.51;75.91;98492.84;1735158;82;20189;-64
2021/11/27 11:49:14;;;;;;;;;;;;;;;10.54;75.47;98488.25;1735473;82;20215;-64
2021/11/27 11:52:03;;;;;;;;;;;;;;;10.54;75.10;98490.98;1714731;82;20191;-63
2021/11/27 12:11:57;;;;;;;;;;;;;;;10.70;74.32;98511.28;1744460;81;20572;-64
2021/11/27 12:14:56;;;;;;;;;;;;;;;10.73;74.03;98517.10;1710932;82;20169;-63
2021/11/27 12:17:51;;;;;;;;;;;;;;;10.75;74.23;98519.06;1703127;84;20164;-63
2021/11/27 12:20:54;;;;;;;;;;;;;;;10.79;74.71;98518.03;1713207;84;20193;-62
2021/11/27 12:23:45;;;;;;;;;;;;;;;10.76;74.29;98519.35;1713128;84;20557;-64
2021/11/27 12:26:34;;;;;;;;;;;;;;;10.73;74.00;98524.48;1713193;84;20216;-64
2021/11/27 12:29:28;;;;;;;;;;;;;;;10.67;73.86;98530.41;1712891;84;20174;-63
2021/11/27 12:32:24;;;;;;;;;;;;;;;10.63;73.89;98538.81;1712895;84;20235;-62
2021/11/27 12:35:32;;;;;;;;;;;;;;;10.64;74.14;98554.70;1712983;84;20222;-63
2021/11/27 12:38:31;;;;;;;;;;;;;;;10.60;73.88;98551.63;1712955;84;20187;-63
2021/11/27 12:41:30;;;;;;;;;;;;;;;10.55;74.29;98552.89;1712819;84;20149;-63
2021/11/27 12:44:31;;;;;;;;;;;;;;;10.55;74.89;98552.06;1712844;84;20203;-63
2021/11/27 12:47:27;;;;;;;;;;;;;;;10.56;74.57;98564.68;1712783;84;20160;-62
2021/11/27 12:50:23;;;;;;;;;;;;;;;10.56;74.77;98557.83;1714316;82;20224;-63
2021/11/27 12:53:19;;;;;;;;;;;;;;;10.58;75.03;98562.53;1712139;82;20235;-63
2021/11/27 12:56:17;;;;;;;;;;;;;;;10.58;75.21;98568.00;1699632;83;20234;-66
2021/11/27 12:58:45;;;;;;;;;;;;;;;10.58;74.85;98568.00;1715296;82;20141;-63
2021/11/27 13:01:26;;;;;;;;;;;;;;;10.57;74.86;98582.23;1715815;83;20207;-63
2021/11/27 13:04:11;;;;;;;;;;;;;;;10.59;74.97;98579.25;1633475;86;20251;-65
2021/11/27 13:07:01;;;;;;;;;;;;;;;10.59;74.46;98584.73;1594528;90;20523;-63
2021/11/27 13:13:04;;;;;;;;;;;;;;;10.55;75.11;98584.92;1559388;91;20493;-63
2021/11/27 13:15:36;;;;;;;;;;;;;;;10.58;75.18;98589.38;1632462;88;20157;-64
2021/11/27 13:18:13;;;;;;;;;;;;;;;10.63;75.34;98595.50;1632075;88;20530;-63
2021/11/27 13:21:01;;;;;;;;;;;;;;;10.62;74.84;98596.03;1632236;88;20591;-64
2021/11/27 13:26:40;;;;;;;;;;;;;;;10.52;73.98;98608.67;1712168;84;20199;-63
2021/11/27 13:29:27;;;;;;;;;;;;;;;10.44;73.62;98605.23;1711628;84;20211;-62
2021/11/27 13:32:02;;;;;;;;;;;;;;;10.41;73.78;98606.25;1737084;82;20193;-64
2021/11/27 13:37:21;;;;;;;;;;;;;;;10.35;74.01;98620.34;1722900;82;20185;-63
2021/11/27 13:39:51;;;;;;;;;;;;;;;10.35;74.17;98623.08;1741924;82;20216;-63
2021/11/27 13:42:21;;;;;;;;;;;;;;;10.34;74.16;98621.41;1742112;82;20576;-63
2021/11/27 13:44:54;;;;;;;;;;;;;;;10.31;74.21;98625.99;1741901;82;20236;-63
2021/11/27 13:47:26;;;;;;;;;;;;;;;10.30;74.35;98622.96;1742180;81;20200;-63
2021/11/27 13:50:04;;;;;;;;;;;;;;;10.28;74.37;98626.47;1741796;82;20320;-64
2021/11/27 13:52:36;;;;;;;;;;;;;;;10.25;74.25;98620.11;1742084;82;20197;-63
2021/11/27 13:55:27;;;;;;;;;;;;;;;10.26;74.38;98624.52;1757055;80;20220;-65
2021/11/27 13:58:04;;;;;;;;;;;;;;;10.23;74.39;98624.98;1757850;82;20247;-62
2021/11/27 14:00:37;;;;;;;;;;;;;;;10.23;74.51;98610.47;1758028;82;20192;-63
2021/11/27 14:03:10;;;;;;;;;;;;;;;10.21;74.50;98618.92;1757922;81;20192;-65
2021/11/27 14:05:41;;;;;;;;;;;;;;;10.20;74.92;98624.09;1738373;82;20179;-63
2021/11/27 14:08:17;;;;;;;;;;;;;;;10.21;74.99;98625.77;1727885;82;20160;-62
2021/11/27 14:11:09;;;;;;;;;;;;;;;10.24;75.29;98625.29;1728111;82;20203;-62
2021/11/27 14:13:41;;;;;;;;;;;;;;;10.25;75.02;98626.95;1727683;82;20159;-63
2021/11/27 14:16:21;;;;;;;;;;;;;;;10.24;75.19;98618.98;1725461;82;20184;-62
2021/11/27 14:18:52;;;;;;;;;;;;;;;10.18;74.69;98620.20;1727975;83;20493;-64
2021/11/27 14:21:21;;;;;;;;;;;;;;;10.07;75.10;98618.84;1700174;83;20583;-63